首页
METAR-TAF:

METAR-TAF

机场 :

里加国际机场

里加, 拉脱维亚

纬度: 56-55N, 经度: 023-58E, 海拔: 10米

当前天气观测

该预报发布于17分钟前的18:20 UTC
风速8节,风向
温度 24°C
湿度 65%
气压 1008 hPa
能见度10公里或以上
1500米以下无云,无积雨云

METAR: EVRA 181820Z 36008KT CAVOK 24/17 Q1008 NOSIG

时间: 21:37 (18:37 UTC)

预报

该预报发布于1小时和37分钟前的17:00 UTC
预报有效从18日的 18点(UTC)到 19日的 18点(UTC)
风速7节,风向
能见度10公里或以上
1500米以下无云,无积雨云
短暂存在
从 19日的 08点(UTC)到 19日的 18点(UTC)
散云层高于3000英尺, 积雨云.
几率 40% :
短暂存在
从 19日的 10点(UTC)到 19日的 15点(UTC)
雷暴, 小雨

TAF: EVRA 181700Z 1818/1918 36007KT CAVOK TEMPO 1908/1918 SCT030CB PROB40 TEMPO 1910/1915 -TSRA

超过4000个机场的气象观测和天气预报(METAR&TAF报告)。

可查询的气象台以黄色和红色小点在地图上表示。

将鼠标移到小点上方,可查看气象台名称。

然后点击查看天气观测和预报。

如需切换地图:点击带黑十字的绿色按钮放大地图;点击带横线的绿色按钮缩小地图;或者点击绿色箭头查看邻近地区的地图。


METAR-TAF: